SJX381 RCTP-RPLL
Flight info
| Callsign | SJX381 |
|---|---|
| Flight time | N/A |
| Altitude | 38000 |
| Route | TINHO1A/05R TINHO B591 GID Q11 POTIB M646 LAO/N0467F390 B462 CAB CAB7R |
| Aircraft | A339/H-SADE1E2E3GHIJ3J5M1P2RWXY/LB2D1 |
Departure
| Time | 2026-05-06 13:08 |
|---|---|
| Airport | Taiwan Taoyuan International Airport (RCTP) |
Arrival
| Time | N/A |
|---|---|
| Airport | Ninoy Aquino International Airport (RPLL) |
| Time | Latitude | Longitude | Altitude | Speed | Heading |
|---|---|---|---|---|---|
| 2026-05-06 13:07 | 25.07777 | 121.24496 | 349 ft | 176 kts | 49° |
| 2026-05-06 13:08 | 25.08556 | 121.25472 | 1140 ft | 167 kts | 49° |
| 2026-05-06 13:08 | 25.09290 | 121.26395 | 1863 ft | 162 kts | 51° |
| 2026-05-06 13:08 | 25.09983 | 121.27347 | 2458 ft | 159 kts | 51° |
| 2026-05-06 13:08 | 25.10731 | 121.28275 | 2857 ft | 167 kts | 49° |
| 2026-05-06 13:09 | 25.11528 | 121.29282 | 3176 ft | 181 kts | 50° |
| 2026-05-06 13:09 | 25.12389 | 121.30377 | 3474 ft | 198 kts | 49° |
| 2026-05-06 13:09 | 25.13355 | 121.31539 | 3785 ft | 215 kts | 48° |
| 2026-05-06 13:09 | 25.14389 | 121.32811 | 4139 ft | 232 kts | 50° |
| 2026-05-06 13:10 | 25.15519 | 121.34199 | 4488 ft | 251 kts | 47° |
| 2026-05-06 13:10 | 25.16762 | 121.35654 | 4781 ft | 273 kts | 46° |
| 2026-05-06 13:10 | 25.18134 | 121.37153 | 5416 ft | 281 kts | 44° |
| 2026-05-06 13:10 | 25.19535 | 121.38680 | 6143 ft | 286 kts | 45° |
| 2026-05-06 13:11 | 25.20937 | 121.40251 | 6850 ft | 291 kts | 45° |
| 2026-05-06 13:11 | 25.22366 | 121.41878 | 7575 ft | 295 kts | 45° |
| 2026-05-06 13:11 | 25.23775 | 121.43495 | 8288 ft | 299 kts | 46° |
| 2026-05-06 13:11 | 25.25226 | 121.45166 | 8984 ft | 303 kts | 46° |
| 2026-05-06 13:12 | 25.26673 | 121.46835 | 9653 ft | 306 kts | 46° |
| 2026-05-06 13:12 | 25.28157 | 121.48575 | 10314 ft | 310 kts | 50° |
| 2026-05-06 13:12 | 25.29215 | 121.50661 | 10665 ft | 325 kts | 74° |
| 2026-05-06 13:12 | 25.29386 | 121.53175 | 10942 ft | 340 kts | 99° |
| 2026-05-06 13:13 | 25.28534 | 121.55652 | 11271 ft | 351 kts | 125° |
| 2026-05-06 13:13 | 25.26799 | 121.57497 | 11805 ft | 353 kts | 150° |
| 2026-05-06 13:13 | 25.24503 | 121.58367 | 12414 ft | 352 kts | 175° |
| 2026-05-06 13:13 | 25.22061 | 121.58073 | 12968 ft | 353 kts | 201° |
| 2026-05-06 13:14 | 25.19916 | 121.56800 | 13506 ft | 355 kts | 212° |
| 2026-05-06 13:14 | 25.17658 | 121.55695 | 13992 ft | 363 kts | 192° |
| 2026-05-06 13:14 | 25.15096 | 121.55743 | 14537 ft | 370 kts | 166° |
| 2026-05-06 13:14 | 25.12726 | 121.56816 | 15128 ft | 374 kts | 153° |
| 2026-05-06 13:15 | 25.10439 | 121.58213 | 15691 ft | 377 kts | 150° |
| 2026-05-06 13:15 | 25.08161 | 121.59660 | 16228 ft | 381 kts | 150° |
| 2026-05-06 13:15 | 25.05841 | 121.61114 | 16779 ft | 385 kts | 151° |
| 2026-05-06 13:15 | 25.03479 | 121.62566 | 17333 ft | 388 kts | 152° |
| 2026-05-06 13:16 | 25.01121 | 121.63993 | 17875 ft | 391 kts | 152° |
| 2026-05-06 13:16 | 24.98727 | 121.65427 | 18417 ft | 395 kts | 153° |
| 2026-05-06 13:16 | 24.96308 | 121.66867 | 18962 ft | 398 kts | 153° |
| 2026-05-06 13:16 | 24.93873 | 121.68314 | 19506 ft | 401 kts | 153° |
| 2026-05-06 13:17 | 24.91398 | 121.69781 | 20051 ft | 404 kts | 153° |
| 2026-05-06 13:17 | 24.88907 | 121.71255 | 20592 ft | 406 kts | 153° |
| 2026-05-06 13:17 | 24.86446 | 121.72713 | 21101 ft | 410 kts | 153° |
| 2026-05-06 13:17 | 24.83883 | 121.74227 | 21624 ft | 412 kts | 153° |
| 2026-05-06 13:18 | 24.81350 | 121.75724 | 22125 ft | 415 kts | 153° |
| 2026-05-06 13:18 | 24.78794 | 121.77234 | 22631 ft | 418 kts | 153° |
| 2026-05-06 13:18 | 24.76223 | 121.78752 | 23127 ft | 421 kts | 153° |
| 2026-05-06 13:18 | 24.73628 | 121.80284 | 23592 ft | 425 kts | 153° |
| 2026-05-06 13:19 | 24.71048 | 121.81807 | 24040 ft | 428 kts | 153° |
| 2026-05-06 13:19 | 24.68417 | 121.83359 | 24487 ft | 432 kts | 153° |
| 2026-05-06 13:19 | 24.65750 | 121.84929 | 24922 ft | 436 kts | 153° |
| 2026-05-06 13:19 | 24.63065 | 121.86510 | 25352 ft | 440 kts | 154° |
| 2026-05-06 13:20 | 24.60357 | 121.88105 | 25765 ft | 443 kts | 154° |
| 2026-05-06 13:20 | 24.57624 | 121.89713 | 26196 ft | 447 kts | 154° |
| 2026-05-06 13:20 | 24.54861 | 121.91339 | 26631 ft | 450 kts | 154° |
| 2026-05-06 13:20 | 24.52105 | 121.92960 | 27051 ft | 453 kts | 154° |
| 2026-05-06 13:21 | 24.49343 | 121.94583 | 27460 ft | 456 kts | 154° |
| 2026-05-06 13:21 | 24.46510 | 121.96249 | 27872 ft | 459 kts | 154° |
| 2026-05-06 13:21 | 24.43719 | 121.97887 | 28259 ft | 462 kts | 154° |
| 2026-05-06 13:21 | 24.40844 | 121.99574 | 28642 ft | 465 kts | 155° |
| 2026-05-06 13:22 | 24.37879 | 122.00980 | 28989 ft | 464 kts | 166° |
| 2026-05-06 13:22 | 24.34756 | 122.01640 | 29364 ft | 461 kts | 179° |
| 2026-05-06 13:22 | 24.31556 | 122.01559 | 29745 ft | 457 kts | 192° |
| 2026-05-06 13:22 | 24.28451 | 122.00781 | 30118 ft | 455 kts | 200° |
| 2026-05-06 13:23 | 24.25447 | 121.99784 | 30485 ft | 457 kts | 201° |
| 2026-05-06 13:23 | 24.22372 | 121.98737 | 30856 ft | 460 kts | 201° |
| 2026-05-06 13:23 | 24.19301 | 121.97699 | 31204 ft | 463 kts | 201° |
| 2026-05-06 13:23 | 24.16203 | 121.96667 | 31562 ft | 465 kts | 201° |
| 2026-05-06 13:24 | 24.13088 | 121.95639 | 31892 ft | 468 kts | 201° |
| 2026-05-06 13:24 | 24.09991 | 121.94624 | 32204 ft | 471 kts | 201° |
| 2026-05-06 13:24 | 24.06834 | 121.93593 | 32558 ft | 473 kts | 201° |
| 2026-05-06 13:24 | 24.03678 | 121.92565 | 33011 ft | 472 kts | 201° |
| 2026-05-06 13:25 | 24.00543 | 121.91547 | 33496 ft | 471 kts | 201° |
| 2026-05-06 13:25 | 23.97381 | 121.90521 | 33993 ft | 469 kts | 201° |
| 2026-05-06 13:25 | 23.94264 | 121.89509 | 34442 ft | 468 kts | 201° |
| 2026-05-06 13:25 | 23.91159 | 121.88501 | 34886 ft | 467 kts | 201° |
| 2026-05-06 13:26 | 23.88038 | 121.87489 | 35312 ft | 466 kts | 201° |
| 2026-05-06 13:26 | 23.84919 | 121.86475 | 35692 ft | 465 kts | 201° |
| 2026-05-06 13:26 | 23.81850 | 121.85480 | 36046 ft | 465 kts | 201° |
| 2026-05-06 13:26 | 23.78749 | 121.84473 | 36351 ft | 465 kts | 201° |
| 2026-05-06 13:27 | 23.75640 | 121.83465 | 36590 ft | 467 kts | 202° |
| 2026-05-06 13:27 | 23.72513 | 121.82451 | 36820 ft | 469 kts | 202° |
| 2026-05-06 13:27 | 23.69342 | 121.81424 | 37061 ft | 470 kts | 202° |
| 2026-05-06 13:27 | 23.66217 | 121.80413 | 37311 ft | 471 kts | 202° |
| 2026-05-06 13:28 | 23.63066 | 121.79394 | 37558 ft | 472 kts | 202° |
| 2026-05-06 13:28 | 23.59885 | 121.78366 | 37782 ft | 473 kts | 202° |
| 2026-05-06 13:28 | 23.56744 | 121.77350 | 37969 ft | 475 kts | 202° |
| 2026-05-06 13:29 | 23.50365 | 121.75281 | 37995 ft | 478 kts | 202° |
| 2026-05-06 13:29 | 23.43992 | 121.73219 | 37997 ft | 478 kts | 202° |
| 2026-05-06 13:30 | 23.37601 | 121.71154 | 37993 ft | 478 kts | 202° |
| 2026-05-06 13:30 | 23.31215 | 121.69094 | 37995 ft | 479 kts | 202° |
| 2026-05-06 13:31 | 23.24870 | 121.67051 | 38010 ft | 478 kts | 202° |
| 2026-05-06 13:31 | 23.18448 | 121.64987 | 38007 ft | 478 kts | 202° |
| 2026-05-06 13:32 | 23.12062 | 121.62936 | 38021 ft | 479 kts | 202° |
| 2026-05-06 13:32 | 23.05642 | 121.60875 | 38012 ft | 479 kts | 202° |
| 2026-05-06 13:33 | 22.99231 | 121.58820 | 38029 ft | 479 kts | 202° |
| 2026-05-06 13:33 | 22.92853 | 121.56777 | 38026 ft | 479 kts | 202° |
| 2026-05-06 13:34 | 22.86465 | 121.54737 | 38028 ft | 479 kts | 202° |
| 2026-05-06 13:34 | 22.82178 | 121.53368 | 38024 ft | 479 kts | 202° |